Time;durP1;ratioP1;P1;durP2;ratioP2;P2;SDS_P1;SDS_P2;PMS_P1;PMS_P2;Temp;Humidity;BMP_temperature;BMP_pressure;BME280_temperature;BME280_humidity;BME280_pressure;Samples;Min_cycle;Max_cycle;Signal;HPM_P1;HPM_P2
2023/11/27 00:01:23;;;;;;;2.30;1.90;;;;;;;1.42;100.00;96864.10;105818;1250;60967;-74
2023/11/27 00:03:51;;;;;;;2.00;1.90;;;;;;;1.39;100.00;96870.40;105874;1251;59583;-78
2023/11/27 00:06:21;;;;;;;1.30;1.20;;;;;;;1.37;100.00;96872.98;105810;1254;73051;-75
2023/11/27 00:08:48;;;;;;;1.20;1.10;;;;;;;1.34;100.00;96872.15;105887;1251;62367;-77
2023/11/27 00:11:15;;;;;;;0.60;0.60;;;;;;;1.29;100.00;96880.52;105833;1254;71121;-78
2023/11/27 00:13:42;;;;;;;1.40;0.70;;;;;;;1.25;100.00;96885.11;105965;1251;59608;-77
2023/11/27 00:16:09;;;;;;;0.50;0.50;;;;;;;1.24;100.00;96893.33;105882;1254;59618;-75
2023/11/27 00:18:35;;;;;;;0.70;0.70;;;;;;;1.24;100.00;96901.55;105839;1250;71903;-74
2023/11/27 00:21:03;;;;;;;0.60;0.60;;;;;;;1.24;100.00;96908.44;105910;1254;63704;-74
2023/11/27 00:23:31;;;;;;;0.40;0.30;;;;;;;1.24;100.00;96911.90;105893;1254;72673;-74
2023/11/27 00:25:58;;;;;;;0.70;0.70;;;;;;;1.20;100.00;96919.23;105948;1254;61114;-75
2023/11/27 00:28:25;;;;;;;0.40;0.40;;;;;;;1.16;100.00;96923.73;105934;1250;60358;-77
2023/11/27 00:30:52;;;;;;;0.70;0.40;;;;;;;1.11;100.00;96934.59;105964;1251;73052;-76
2023/11/27 00:33:20;;;;;;;1.10;1.00;;;;;;;1.06;100.00;96944.83;106067;1254;63644;-76
2023/11/27 00:35:47;;;;;;;0.90;0.80;;;;;;;1.01;100.00;96946.73;105878;1251;72462;-76
2023/11/27 00:38:15;;;;;;;0.60;0.60;;;;;;;0.97;100.00;96960.81;106294;1254;61163;-75
2023/11/27 00:40:42;;;;;;;0.80;0.80;;;;;;;0.93;100.00;96962.52;106005;1251;60316;-77
2023/11/27 00:43:10;;;;;;;0.90;0.70;;;;;;;0.93;100.00;96968.23;105891;1251;72075;-76
2023/11/27 00:45:37;;;;;;;0.70;0.70;;;;;;;0.93;100.00;96980.13;105983;1250;63922;-77
2023/11/27 00:48:04;;;;;;;0.80;0.80;;;;;;;0.90;100.00;96986.84;105995;1254;71690;-79
2023/11/27 00:50:31;;;;;;;1.00;1.00;;;;;;;0.86;100.00;96999.23;105988;1251;61092;-78
2023/11/27 00:52:59;;;;;;;0.70;0.70;;;;;;;0.85;100.00;97007.73;105919;1251;60365;-79
2023/11/27 00:55:26;;;;;;;0.90;0.90;;;;;;;0.83;100.00;97024.67;106067;1251;73057;-78
2023/11/27 00:57:53;;;;;;;0.80;0.60;;;;;;;0.83;100.00;97036.20;106009;1257;63923;-79
2023/11/27 01:00:21;;;;;;;1.30;1.20;;;;;;;0.83;100.00;97046.34;105892;1251;72578;-76
2023/11/27 01:02:52;;;;;;;5.00;2.80;;;;;;;0.82;100.00;97056.05;105932;1254;61249;-76
2023/11/27 01:05:19;;;;;;;11.40;6.90;;;;;;;0.82;100.00;97066.71;105840;1251;60122;-76
2023/11/27 01:07:46;;;;;;;20.70;10.40;;;;;;;0.87;100.00;97078.55;105910;1251;72985;-77
2023/11/27 01:10:14;;;;;;;17.40;10.80;;;;;;;0.93;100.00;97082.44;105933;1254;63625;-77
2023/11/27 01:12:44;;;;;;;18.40;10.30;;;;;;;0.95;100.00;97091.20;105953;1254;72799;-77
2023/11/27 01:15:14;;;;;;;18.80;9.90;;;;;;;0.96;100.00;97101.77;105909;1254;61039;-79
2023/11/27 01:17:41;;;;;;;12.60;8.40;;;;;;;0.96;100.00;97108.28;105956;1251;60194;-78
2023/11/27 01:20:09;;;;;;;15.10;8.20;;;;;;;0.97;100.00;97122.32;105972;1254;73065;-76
2023/11/27 01:22:36;;;;;;;16.60;9.20;;;;;;;0.94;100.00;97131.83;105860;1252;63768;-78
2023/11/27 01:25:04;;;;;;;11.40;7.20;;;;;;;0.92;100.00;97144.20;105915;1252;72760;-77
2023/11/27 01:27:32;;;;;;;10.00;5.00;;;;;;;0.92;100.00;97155.75;106038;1254;60941;-78
2023/11/27 01:29:59;;;;;;;6.40;3.90;;;;;;;0.91;100.00;97168.70;106036;1251;60259;-75
2023/11/27 01:32:26;;;;;;;5.90;3.80;;;;;;;0.90;100.00;97182.21;105972;1251;72907;-75
2023/11/27 01:34:53;;;;;;;7.20;4.90;;;;;;;0.89;100.00;97185.88;105837;1254;63847;-75
2023/11/27 01:37:21;;;;;;;9.00;4.60;;;;;;;0.90;100.00;97204.76;105839;1255;72744;-75
2023/11/27 01:39:48;;;;;;;5.90;3.50;;;;;;;0.89;100.00;97210.98;105985;1251;60054;-76
2023/11/27 01:42:16;;;;;;;4.80;3.20;;;;;;;0.88;100.00;97226.86;106150;1250;59638;-77
2023/11/27 01:44:43;;;;;;;2.20;2.00;;;;;;;0.88;100.00;97235.33;106193;1251;71752;-77
2023/11/27 01:47:10;;;;;;;1.40;1.30;;;;;;;0.87;100.00;97246.52;105831;1253;63950;-77
2023/11/27 01:49:39;;;;;;;1.50;1.40;;;;;;;0.84;100.00;97251.10;105884;1251;72523;-76
2023/11/27 01:52:06;;;;;;;1.50;1.00;;;;;;;0.81;100.00;97269.69;106027;1251;59711;-76
2023/11/27 01:54:36;;;;;;;1.20;1.10;;;;;;;0.80;100.00;97274.73;106022;1251;60016;-78
2023/11/27 01:57:04;;;;;;;1.80;1.10;;;;;;;0.78;100.00;97287.12;106008;1251;73425;-78
2023/11/27 01:59:31;;;;;;;3.00;1.50;;;;;;;0.76;100.00;97289.48;105969;1257;61696;-78
2023/11/27 02:01:58;;;;;;;4.00;1.90;;;;;;;0.74;100.00;97305.48;105914;1252;71462;-78
2023/11/27 02:04:27;;;;;;;3.60;2.30;;;;;;;0.70;100.00;97319.52;105920;1251;59695;-76
2023/11/27 02:06:54;;;;;;;5.10;3.20;;;;;;;0.68;100.00;97323.64;106122;1251;60219;-78
2023/11/27 02:09:21;;;;;;;6.60;4.00;;;;;;;0.66;100.00;97342.69;105993;1251;72828;-79
2023/11/27 02:11:49;;;;;;;5.90;3.90;;;;;;;0.63;100.00;97360.73;106005;1252;62293;-76
2023/11/27 02:14:17;;;;;;;5.10;3.40;;;;;;;0.58;100.00;97365.72;106413;1251;72370;-76
2023/11/27 02:16:45;;;;;;;9.00;3.60;;;;;;;0.54;100.00;97378.75;107166;1254;59893;-79
2023/11/27 02:19:13;;;;;;;6.90;2.70;;;;;;;0.50;100.00;97391.08;106089;1251;60305;-78
2023/11/27 02:21:41;;;;;;;4.40;3.30;;;;;;;0.47;100.00;97402.13;106057;1251;72981;-75
2023/11/27 02:24:08;;;;;;;3.60;2.90;;;;;;;0.44;100.00;97416.97;106059;1256;64033;-77
2023/11/27 02:26:35;;;;;;;6.60;3.90;;;;;;;0.39;100.00;97425.89;105945;1254;72881;-79
2023/11/27 02:29:03;;;;;;;9.00;4.50;;;;;;;0.36;100.00;97429.73;105949;1251;60993;-77
2023/11/27 02:31:30;;;;;;;8.20;4.00;;;;;;;0.34;100.00;97446.00;105853;1251;60517;-77
2023/11/27 02:33:58;;;;;;;8.10;4.50;;;;;;;0.33;100.00;97453.11;105879;1251;73783;-75
2023/11/27 02:36:26;;;;;;;5.00;3.10;;;;;;;0.31;100.00;97467.80;105880;1254;63842;-77
2023/11/27 02:38:53;;;;;;;4.30;2.50;;;;;;;0.31;100.00;97478.83;105987;1251;72678;-77
2023/11/27 02:41:20;;;;;;;2.40;1.90;;;;;;;0.30;100.00;97486.30;105816;1256;61270;-78
2023/11/27 02:43:47;;;;;;;2.30;2.10;;;;;;;0.30;100.00;97493.84;105801;1251;60472;-77
2023/11/27 02:46:15;;;;;;;4.70;3.30;;;;;;;0.30;100.00;97507.61;105841;1250;73675;-79
2023/11/27 02:48:42;;;;;;;5.10;3.40;;;;;;;0.29;100.00;97516.75;105850;1254;63986;-76
2023/11/27 02:51:09;;;;;;;3.50;2.30;;;;;;;0.29;100.00;97525.90;105913;1251;70804;-78
2023/11/27 02:53:37;;;;;;;3.00;2.10;;;;;;;0.30;100.00;97531.17;105871;1256;61148;-77
2023/11/27 02:56:05;;;;;;;2.80;2.10;;;;;;;0.31;100.00;97538.98;105839;1257;61074;-78
2023/11/27 02:58:32;;;;;;;1.80;1.50;;;;;;;0.32;100.00;97550.95;106009;1257;73823;-78
2023/11/27 03:00:59;;;;;;;2.70;2.40;;;;;;;0.31;100.00;97555.61;105896;1252;62520;-77
2023/11/27 03:03:26;;;;;;;2.00;1.80;;;;;;;0.31;100.00;97563.20;106050;1251;72622;-75
2023/11/27 03:05:53;;;;;;;2.60;2.00;;;;;;;0.29;100.00;97568.98;105998;1255;61181;-80
2023/11/27 03:08:20;;;;;;;2.70;2.30;;;;;;;0.28;100.00;97570.82;105893;1251;60541;-78
2023/11/27 03:10:48;;;;;;;2.10;1.90;;;;;;;0.25;100.00;97577.84;105948;1251;73883;-78
2023/11/27 03:13:18;;;;;;;2.70;2.40;;;;;;;0.25;100.00;97587.17;105944;1254;64454;-78
2023/11/27 03:15:45;;;;;;;2.80;2.50;;;;;;;0.24;100.00;97599.75;105837;1251;72676;-80
2023/11/27 03:18:13;;;;;;;2.40;1.70;;;;;;;0.23;100.00;97606.86;105997;1254;61200;-78
2023/11/27 03:20:41;;;;;;;2.50;2.30;;;;;;;0.22;100.00;97618.56;105981;1251;60517;-76
2023/11/27 03:23:09;;;;;;;3.20;2.20;;;;;;;0.21;100.00;97634.11;105888;1254;74908;-75
2023/11/27 03:25:36;;;;;;;2.70;2.30;;;;;;;0.17;100.00;97644.67;105968;1257;63844;-77
2023/11/27 03:28:03;;;;;;;5.60;2.20;;;;;;;0.13;100.00;97659.77;105906;1251;72666;-78
2023/11/27 03:30:30;;;;;;;1.80;1.70;;;;;;;0.05;100.00;97668.00;105925;1256;61804;-78
2023/11/27 03:32:57;;;;;;;2.90;2.10;;;;;;;-0.04;100.00;97680.71;106049;1251;60418;-79
2023/11/27 03:35:24;;;;;;;4.80;2.40;;;;;;;-0.09;100.00;97696.36;105891;1256;73829;-78
2023/11/27 03:37:51;;;;;;;2.70;2.50;;;;;;;-0.14;100.00;97698.71;105747;1251;62526;-78
2023/11/27 03:40:18;;;;;;;2.60;2.00;;;;;;;-0.19;100.00;97712.94;105827;1251;71200;-80
2023/11/27 03:42:46;;;;;;;5.50;3.00;;;;;;;-0.24;100.00;97715.80;105951;1254;61059;-78
2023/11/27 03:45:13;;;;;;;2.50;2.10;;;;;;;-0.29;100.00;97734.67;105872;1251;60453;-79
2023/11/27 03:47:41;;;;;;;4.40;2.40;;;;;;;-0.32;100.00;97746.57;105881;1251;73755;-77
2023/11/27 03:50:10;;;;;;;2.20;2.00;;;;;;;-0.34;100.00;97746.55;105871;1251;62450;-77
2023/11/27 03:52:38;;;;;;;3.00;2.70;;;;;;;-0.39;100.00;97756.05;106509;1252;73209;-76
2023/11/27 03:55:05;;;;;;;3.10;2.60;;;;;;;-0.41;100.00;97761.53;106326;1251;60449;-77
2023/11/27 03:57:32;;;;;;;5.10;3.20;;;;;;;-0.44;100.00;97766.69;105834;1251;60420;-79
2023/11/27 03:59:59;;;;;;;2.80;2.50;;;;;;;-0.46;100.00;97774.33;105881;1254;73826;-78
2023/11/27 04:02:26;;;;;;;3.30;2.50;;;;;;;-0.47;100.00;97787.77;106017;1255;63869;-77
2023/11/27 04:04:53;;;;;;;3.30;2.00;;;;;;;-0.49;100.00;97794.24;106004;1251;71214;-79
2023/11/27 04:07:20;;;;;;;3.40;2.70;;;;;;;-0.52;100.00;97800.98;105902;1254;61206;-79
2023/11/27 04:09:48;;;;;;;3.00;2.70;;;;;;;-0.57;100.00;97810.38;106001;1251;60438;-79
2023/11/27 04:12:15;;;;;;;4.30;2.30;;;;;;;-0.63;100.00;97817.91;105947;1251;73840;-80
2023/11/27 04:14:42;;;;;;;6.60;2.40;;;;;;;-0.69;100.00;97824.95;105870;1251;62349;-80
2023/11/27 04:17:12;;;;;;;2.80;2.00;;;;;;;-0.73;100.00;97844.95;106009;1256;72648;-75
2023/11/27 04:19:39;;;;;;;2.50;2.30;;;;;;;-0.76;100.00;97856.09;105854;1257;61242;-77
2023/11/27 04:22:06;;;;;;;2.90;2.10;;;;;;;-0.77;100.00;97864.39;105920;1256;60431;-78
2023/11/27 04:24:33;;;;;;;3.20;2.20;;;;;;;-0.78;100.00;97879.88;105870;1257;73864;-79
2023/11/27 04:27:00;;;;;;;4.70;2.40;;;;;;;-0.80;100.00;97893.36;105869;1254;62387;-78
2023/11/27 04:29:28;;;;;;;3.00;2.40;;;;;;;-0.80;100.00;97907.30;105944;1255;72557;-77
2023/11/27 04:31:55;;;;;;;2.60;2.10;;;;;;;-0.83;100.00;97919.07;106006;1255;60883;-78
2023/11/27 04:34:22;;;;;;;3.70;2.40;;;;;;;-0.83;100.00;97933.34;106010;1251;60433;-77
2023/11/27 04:36:49;;;;;;;4.70;2.50;;;;;;;-0.85;100.00;97936.70;105957;1251;73836;-77
2023/11/27 04:39:18;;;;;;;2.80;2.30;;;;;;;-0.89;100.00;97942.24;106250;1255;62961;-76
2023/11/27 04:41:45;;;;;;;4.00;2.60;;;;;;;-0.93;100.00;97965.27;107069;1254;72693;-78
2023/11/27 04:44:12;;;;;;;2.60;2.40;;;;;;;-0.95;100.00;97965.02;106294;1257;61337;-77
2023/11/27 04:46:40;;;;;;;2.60;2.40;;;;;;;-0.97;100.00;97975.63;106018;1251;60453;-78
2023/11/27 04:49:09;;;;;;;5.80;2.30;;;;;;;-0.99;100.00;97983.14;106007;1254;73842;-79
2023/11/27 04:51:38;;;;;;;2.90;2.50;;;;;;;-1.03;100.00;97995.17;105920;1257;63678;-78
2023/11/27 04:54:07;;;;;;;2.60;2.40;;;;;;;-1.07;100.00;98004.98;105933;1251;70354;-78
2023/11/27 04:56:37;;;;;;;3.10;2.50;;;;;;;-1.09;100.00;98016.59;105950;1256;61010;-79
2023/11/27 04:59:04;;;;;;;2.90;2.70;;;;;;;-1.11;100.00;98025.61;105900;1255;60433;-78
2023/11/27 05:01:32;;;;;;;3.20;2.30;;;;;;;-1.13;100.00;98033.23;105984;1257;73870;-80
2023/11/27 05:03:59;;;;;;;3.00;2.30;;;;;;;-1.15;100.00;98039.04;106014;1255;62319;-79
2023/11/27 05:06:26;;;;;;;2.80;2.60;;;;;;;-1.18;100.00;98061.09;105928;1251;71405;-78
2023/11/27 05:08:54;;;;;;;2.70;2.30;;;;;;;-1.19;100.00;98061.69;105896;1251;61356;-79
2023/11/27 05:11:22;;;;;;;2.50;2.30;;;;;;;-1.22;100.00;98073.48;105922;1251;60456;-79
2023/11/27 05:13:50;;;;;;;4.30;2.30;;;;;;;-1.25;100.00;98081.52;105893;1251;73992;-79
2023/11/27 05:16:20;;;;;;;4.00;3.00;;;;;;;-1.30;100.00;98084.36;105867;1255;63935;-79
2023/11/27 05:18:47;;;;;;;3.90;2.60;;;;;;;-1.35;100.00;98097.33;106028;1255;71595;-78
2023/11/27 05:21:14;;;;;;;3.20;2.60;;;;;;;-1.38;100.00;98107.59;106339;1255;61395;-79
2023/11/27 05:23:42;;;;;;;3.20;2.40;;;;;;;-1.39;100.00;98113.79;106242;1252;60372;-76
2023/11/27 05:26:12;;;;;;;4.90;3.20;;;;;;;-1.38;100.00;98126.63;106181;1251;73559;-77
2023/11/27 05:28:42;;;;;;;3.40;2.90;;;;;;;-1.38;100.00;98142.39;106002;1256;63827;-77
2023/11/27 05:31:10;;;;;;;3.60;3.20;;;;;;;-1.38;100.00;98156.74;106425;1251;71509;-79
2023/11/27 05:33:36;;;;;;;4.50;3.10;;;;;;;-1.36;100.00;98165.77;106034;1255;60524;-78
2023/11/27 05:36:04;;;;;;;4.40;2.90;;;;;;;-1.37;100.00;98169.41;105978;1251;60473;-78
2023/11/27 05:38:35;;;;;;;4.10;2.70;;;;;;;-1.38;100.00;98189.66;105924;1252;73728;-79
2023/11/27 05:41:03;;;;;;;5.50;2.70;;;;;;;-1.39;100.00;98185.77;106080;1256;63881;-79
2023/11/27 05:43:31;;;;;;;4.30;2.70;;;;;;;-1.40;100.00;98199.53;106214;1251;71625;-79
2023/11/27 05:46:01;;;;;;;4.70;3.50;;;;;;;-1.41;100.00;98208.84;105960;1252;61084;-78
2023/11/27 05:48:29;;;;;;;4.90;2.70;;;;;;;-1.41;100.00;98223.91;105987;1251;60559;-77
2023/11/27 05:50:58;;;;;;;4.30;3.00;;;;;;;-1.38;100.00;98234.75;105870;1251;71248;-77
2023/11/27 05:53:26;;;;;;;3.20;2.90;;;;;;;-1.36;100.00;98243.56;105984;1252;62296;-77
2023/11/27 05:55:53;;;;;;;3.20;2.60;;;;;;;-1.36;100.00;98242.36;105992;1251;72747;-80
2023/11/27 05:58:20;;;;;;;4.40;3.00;;;;;;;-1.36;100.00;98260.33;105957;1251;60526;-79
2023/11/27 06:00:47;;;;;;;4.60;3.20;;;;;;;-1.35;100.00;98266.30;105929;1255;60511;-77
2023/11/27 06:03:14;;;;;;;4.60;3.20;;;;;;;-1.36;100.00;98278.52;105872;1255;73825;-78
2023/11/27 06:05:41;;;;;;;3.50;3.00;;;;;;;-1.35;100.00;98285.00;105918;1251;62225;-78
2023/11/27 06:08:08;;;;;;;4.30;2.70;;;;;;;-1.35;100.00;98291.12;105891;1251;73427;-77
2023/11/27 06:10:36;;;;;;;4.90;3.00;;;;;;;-1.37;100.00;98296.55;105915;1256;61084;-78
2023/11/27 06:13:03;;;;;;;4.50;3.60;;;;;;;-1.38;100.00;98302.44;105972;1251;61601;-79
2023/11/27 06:15:31;;;;;;;6.10;5.00;;;;;;;-1.36;100.00;98313.47;105904;1251;72543;-78
2023/11/27 06:18:01;;;;;;;3.80;3.00;;;;;;;-1.32;100.00;98320.64;106246;1255;63744;-76
2023/11/27 06:20:29;;;;;;;3.30;2.50;;;;;;;-1.30;100.00;98329.98;106364;1252;72923;-79
2023/11/27 06:22:57;;;;;;;5.40;3.50;;;;;;;-1.28;100.00;98334.17;105956;1256;61205;-79
2023/11/27 06:25:24;;;;;;;3.90;2.80;;;;;;;-1.25;100.00;98332.80;106163;1257;60410;-79
2023/11/27 06:27:51;;;;;;;5.30;3.40;;;;;;;-1.23;100.00;98344.21;105729;1259;73915;-80
2023/11/27 06:30:18;;;;;;;5.20;3.40;;;;;;;-1.21;100.00;98351.66;106183;1254;63659;-79
2023/11/27 06:32:45;;;;;;;4.90;3.10;;;;;;;-1.19;100.00;98361.84;106039;1257;72501;-80
2023/11/27 06:35:12;;;;;;;4.20;3.00;;;;;;;-1.17;100.00;98370.29;105851;1257;60947;-79
2023/11/27 06:37:40;;;;;;;4.70;3.30;;;;;;;-1.13;100.00;98376.64;105938;1256;60549;-81
2023/11/27 06:40:11;;;;;;;3.90;2.80;;;;;;;-1.11;100.00;98388.70;105921;1251;73874;-80
2023/11/27 06:42:43;;;;;;;3.20;2.60;;;;;;;-1.11;100.00;98395.75;106010;1256;63932;-78
2023/11/27 06:45:13;;;;;;;3.50;3.00;;;;;;;-1.13;100.00;98404.61;106006;1251;71185;-78
2023/11/27 06:47:40;;;;;;;3.50;2.80;;;;;;;-1.15;100.00;98415.83;105912;1251;61343;-78
2023/11/27 06:50:10;;;;;;;3.60;3.10;;;;;;;-1.13;100.00;98428.95;105863;1251;60520;-81
2023/11/27 06:52:38;;;;;;;6.40;5.00;;;;;;;-1.12;100.00;98434.73;105887;1251;72641;-81
2023/11/27 06:55:05;;;;;;;4.90;3.80;;;;;;;-1.11;100.00;98446.81;105861;1251;62483;-79
2023/11/27 06:57:33;;;;;;;4.40;3.30;;;;;;;-1.10;100.00;98454.48;106027;1256;72686;-77
2023/11/27 07:00:01;;;;;;;3.60;3.30;;;;;;;-1.07;100.00;98463.97;105915;1251;60925;-79
2023/11/27 07:02:30;;;;;;;3.50;2.90;;;;;;;-1.06;100.00;98463.91;106005;1252;60427;-80
2023/11/27 07:04:57;;;;;;;2.90;2.70;;;;;;;-1.03;100.00;98477.00;105988;1251;73849;-78
2023/11/27 07:07:27;;;;;;;4.20;2.80;;;;;;;-1.01;100.00;98487.54;106366;1256;63081;-79
2023/11/27 07:09:56;;;;;;;3.70;2.80;;;;;;;-1.00;100.00;98495.36;106377;1251;72675;-78
2023/11/27 07:12:23;;;;;;;4.50;3.20;;;;;;;-0.97;100.00;98501.89;105951;1256;61054;-79
2023/11/27 07:14:51;;;;;;;5.30;3.00;;;;;;;-0.93;100.00;98508.39;105946;1252;60949;-79
2023/11/27 07:17:18;;;;;;;6.50;4.90;;;;;;;-0.88;100.00;98516.38;105825;1258;73695;-81
2023/11/27 07:19:45;;;;;;;8.30;4.70;;;;;;;-0.85;100.00;98516.74;105962;1251;63756;-78
2023/11/27 07:22:12;;;;;;;6.00;2.90;;;;;;;-0.84;100.00;98518.61;105858;1256;72515;-80
2023/11/27 07:24:39;;;;;;;4.80;3.40;;;;;;;-0.84;100.00;98529.07;105931;1255;61183;-78
2023/11/27 07:27:06;;;;;;;2.90;2.60;;;;;;;-0.82;100.00;98537.21;105938;1251;60536;-79
2023/11/27 07:29:33;;;;;;;3.60;3.30;;;;;;;-0.79;100.00;98542.42;105989;1251;73747;-80
2023/11/27 07:32:00;;;;;;;6.00;3.00;;;;;;;-0.79;100.00;98551.85;106084;1256;63807;-80
2023/11/27 07:34:28;;;;;;;2.80;2.60;;;;;;;-0.78;100.00;98558.66;106125;1256;72624;-81
2023/11/27 07:36:55;;;;;;;4.40;3.20;;;;;;;-0.77;100.00;98562.55;105977;1257;61228;-81
2023/11/27 07:39:22;;;;;;;4.50;3.40;;;;;;;-0.76;100.00;98576.40;105963;1257;60404;-79
2023/11/27 07:41:49;;;;;;;5.70;4.20;;;;;;;-0.73;100.00;98578.81;106014;1252;73700;-81
2023/11/27 07:44:17;;;;;;;4.50;2.90;;;;;;;-0.70;100.00;98590.87;105934;1257;63980;-79
2023/11/27 07:46:44;;;;;;;6.90;2.80;;;;;;;-0.67;100.00;98597.95;105900;1251;71360;-79
2023/11/27 07:49:11;;;;;;;5.10;3.20;;;;;;;-0.62;100.00;98601.33;106021;1255;61321;-79
2023/11/27 07:51:39;;;;;;;3.50;3.20;;;;;;;-0.55;100.00;98612.33;106033;1251;60332;-78
2023/11/27 07:54:06;;;;;;;4.50;3.10;;;;;;;-0.50;100.00;98614.31;106073;1254;73903;-79
2023/11/27 07:56:34;;;;;;;5.10;3.70;;;;;;;-0.46;100.00;98625.94;106380;1257;63896;-80
2023/11/27 07:59:01;;;;;;;4.30;3.40;;;;;;;-0.44;100.00;98631.54;106160;1251;71259;-80
2023/11/27 08:01:28;;;;;;;3.30;2.90;;;;;;;-0.46;100.00;98639.85;105940;1251;61245;-81
2023/11/27 08:03:55;;;;;;;3.60;3.30;;;;;;;-0.49;100.00;98651.83;105886;1252;60453;-80
2023/11/27 08:06:22;;;;;;;7.80;3.80;;;;;;;-0.48;100.00;98656.09;105930;1251;73824;-78
2023/11/27 08:08:51;;;;;;;5.30;3.40;;;;;;;-0.49;100.00;98656.98;105918;1256;63230;-80
2023/11/27 08:11:32;;;;;;;6.10;3.30;;;;;;;-0.51;100.00;98668.09;105939;1251;73963;-79
2023/11/27 08:13:59;;;;;;;4.70;2.80;;;;;;;-0.54;100.00;98674.53;105943;1257;61167;-81
2023/11/27 08:16:27;;;;;;;4.40;3.90;;;;;;;-0.53;100.00;98673.50;105819;1251;60590;-79
2023/11/27 08:18:56;;;;;;;6.00;3.70;;;;;;;-0.53;100.00;98682.40;105932;1251;72601;-80
2023/11/27 08:21:24;;;;;;;4.90;3.20;;;;;;;-0.52;100.00;98686.61;105876;1256;63665;-80
2023/11/27 08:23:52;;;;;;;4.70;3.60;;;;;;;-0.50;100.00;98693.92;106015;1257;74817;-81
2023/11/27 08:26:23;;;;;;;4.90;4.40;;;;;;;-0.50;100.00;98700.61;106041;1255;61020;-79
2023/11/27 08:28:50;;;;;;;4.70;3.90;;;;;;;-0.49;100.00;98703.68;105875;1251;60507;-79
2023/11/27 08:31:18;;;;;;;4.30;3.80;;;;;;;-0.46;100.00;98714.33;105901;1255;73857;-79
2023/11/27 08:33:46;;;;;;;5.70;4.70;;;;;;;-0.40;100.00;98712.19;105960;1256;63910;-80
2023/11/27 08:36:14;;;;;;;6.20;3.90;;;;;;;-0.36;100.00;98716.84;105922;1257;73678;-79
2023/11/27 08:38:41;;;;;;;5.50;4.40;;;;;;;-0.31;100.00;98719.86;106089;1254;61260;-79
2023/11/27 08:41:11;;;;;;;7.20;4.10;;;;;;;-0.28;100.00;98724.00;106030;1256;60409;-78
2023/11/27 08:43:40;;;;;;;4.20;3.40;;;;;;;-0.27;100.00;98732.02;105986;1252;73769;-78
2023/11/27 08:46:07;;;;;;;5.80;3.70;;;;;;;-0.27;100.00;98733.56;106198;1251;63998;-77
2023/11/27 08:48:35;;;;;;;4.80;3.20;;;;;;;-0.27;100.00;98732.20;106133;1257;71857;-77
2023/11/27 08:51:02;;;;;;;4.10;3.60;;;;;;;-0.30;100.00;98741.26;105994;1256;61433;-77
2023/11/27 08:53:30;;;;;;;3.50;2.80;;;;;;;-0.29;100.00;98750.14;105979;1251;60514;-77
2023/11/27 08:55:57;;;;;;;4.10;3.20;;;;;;;-0.24;100.00;98751.08;105994;1254;75032;-80
2023/11/27 08:58:25;;;;;;;5.00;3.80;;;;;;;-0.19;100.00;98762.06;106016;1257;63743;-79
2023/11/27 09:00:52;;;;;;;9.00;5.80;;;;;;;-0.15;100.00;98766.71;105970;1250;72285;-79
2023/11/27 09:03:19;;;;;;;5.20;4.70;;;;;;;-0.11;100.00;98771.13;106084;1257;61061;-77
2023/11/27 09:05:47;;;;;;;7.70;4.70;;;;;;;-0.09;100.00;98778.06;106087;1252;60435;-80
2023/11/27 09:08:15;;;;;;;7.80;4.70;;;;;;;-0.08;100.00;98780.77;105952;1256;73845;-80
2023/11/27 09:10:44;;;;;;;8.20;5.00;;;;;;;-0.07;100.00;98790.33;105948;1251;62604;-78
2023/11/27 09:13:12;;;;;;;5.90;4.70;;;;;;;-0.02;100.00;98790.79;106042;1252;72524;-80
2023/11/27 09:15:38;;;;;;;8.50;5.20;;;;;;;0.02;100.00;98793.38;106052;1256;61051;-79
2023/11/27 09:18:06;;;;;;;4.80;3.80;;;;;;;0.05;100.00;98802.54;106103;1251;60597;-79
2023/11/27 09:20:34;;;;;;;5.10;3.60;;;;;;;-0.01;100.00;98808.95;106029;1257;75051;-79
2023/11/27 09:23:01;;;;;;;5.40;4.10;;;;;;;-0.01;100.00;98815.32;106428;1255;64916;-77
2023/11/27 09:25:28;;;;;;;6.80;3.90;;;;;;;0.00;100.00;98818.55;106344;1255;71490;-78
2023/11/27 09:27:57;;;;;;;6.80;4.20;;;;;;;-0.00;100.00;98827.67;106080;1256;61219;-79
2023/11/27 09:30:25;;;;;;;6.50;4.30;;;;;;;-0.03;100.00;98834.30;105946;1264;61210;-80
2023/11/27 09:32:52;;;;;;;5.30;3.90;;;;;;;-0.06;100.00;98841.16;106087;1254;72047;-78
2023/11/27 09:35:20;;;;;;;5.60;4.60;;;;;;;-0.11;100.00;98847.20;106556;1255;63997;-79
2023/11/27 09:37:47;;;;;;;6.20;4.80;;;;;;;-0.15;100.00;98849.79;105996;1251;73569;-81
2023/11/27 09:40:15;;;;;;;6.20;4.60;;;;;;;-0.21;100.00;98851.94;105995;1257;61167;-80
2023/11/27 09:42:42;;;;;;;6.70;4.60;;;;;;;-0.26;100.00;98851.80;105942;1256;60466;-79
2023/11/27 09:45:19;;;;;;;5.50;4.30;;;;;;;-0.28;100.00;98856.04;106008;1256;73691;-81
2023/11/27 09:47:48;;;;;;;4.10;3.60;;;;;;;-0.29;100.00;98856.09;105977;1257;64251;-81
2023/11/27 09:50:16;;;;;;;4.40;3.90;;;;;;;-0.34;100.00;98862.31;106077;1251;72611;-80
2023/11/27 09:52:54;;;;;;;4.80;4.30;;;;;;;-0.39;100.00;98862.70;105911;1255;61239;-81
2023/11/27 09:55:21;;;;;;;6.20;4.40;;;;;;;-0.45;100.00;98865.36;106092;1252;61590;-81
2023/11/27 09:57:49;;;;;;;5.10;4.60;;;;;;;-0.48;100.00;98863.07;105994;1257;72661;-81
2023/11/27 10:00:18;;;;;;;4.60;4.10;;;;;;;-0.47;100.00;98866.98;106032;1257;64074;-81
2023/11/27 10:02:49;;;;;;;5.50;4.30;;;;;;;-0.41;100.00;98871.19;106048;1256;72556;-80
2023/11/27 10:05:18;;;;;;;8.00;5.20;;;;;;;-0.30;100.00;98875.36;105926;1252;60450;-79
2023/11/27 10:07:46;;;;;;;6.50;4.60;;;;;;;-0.26;100.00;98883.77;105903;1253;60540;-80
2023/11/27 10:10:15;;;;;;;5.20;3.90;;;;;;;-0.23;100.00;98890.51;105940;1256;72662;-79
2023/11/27 10:12:46;;;;;;;7.10;5.00;;;;;;;-0.20;100.00;98892.61;105979;1255;64015;-80
2023/11/27 10:15:17;;;;;;;7.40;4.20;;;;;;;-0.17;100.00;98895.58;105947;1257;71894;-79
2023/11/27 10:17:45;;;;;;;4.50;3.80;;;;;;;-0.13;100.00;98904.15;105990;1257;61030;-78
2023/11/27 10:20:13;;;;;;;4.90;3.30;;;;;;;-0.11;100.00;98906.48;106138;1252;60496;-77
2023/11/27 10:22:42;;;;;;;5.40;4.30;;;;;;;-0.11;100.00;98913.33;106287;1252;73660;-79
2023/11/27 10:25:13;;;;;;;5.00;4.30;;;;;;;-0.09;100.00;98916.17;106637;1254;63859;-78
2023/11/27 10:27:43;;;;;;;5.90;3.50;;;;;;;-0.05;100.00;98922.02;106893;1251;72847;-77
2023/11/27 10:30:20;;;;;;;6.80;3.80;;;;;;;-0.04;100.00;98921.77;106296;1251;61136;-81
2023/11/27 10:32:47;;;;;;;5.30;4.20;;;;;;;-0.02;100.00;98927.02;105846;1255;237441;-78
2023/11/27 10:37:13;;;;;;;6.60;4.50;;;;;;;0.03;100.00;98939.66;102464;1292;604098;-76
2023/11/27 10:39:41;;;;;;;6.00;3.90;;;;;;;0.00;100.00;98942.90;104922;1270;60320;-78
2023/11/27 10:42:11;;;;;;;4.60;4.20;;;;;;;-0.06;100.00;98953.48;105669;1258;59902;-77
2023/11/27 10:44:44;;;;;;;4.10;3.60;;;;;;;-0.12;100.00;98958.72;105449;1254;73353;-79
2023/11/27 10:47:11;;;;;;;6.30;3.80;;;;;;;-0.17;100.00;98962.19;105751;1256;64104;-79
2023/11/27 10:49:39;;;;;;;11.50;5.30;;;;;;;-0.25;100.00;98974.57;105397;1254;195759;-80
2023/11/27 10:52:11;;;;;;;6.70;4.00;;;;;;;-0.33;100.00;98974.38;105845;1253;61264;-78
2023/11/27 10:54:41;;;;;;;8.00;4.00;;;;;;;-0.40;100.00;98982.73;106000;1253;60345;-81
2023/11/27 10:57:09;;;;;;;10.50;6.00;;;;;;;-0.48;100.00;98995.77;105608;1253;73279;-81
2023/11/27 10:59:38;;;;;;;7.10;4.30;;;;;;;-0.51;100.00;98995.02;105709;1253;63957;-78
2023/11/27 11:02:08;;;;;;;5.80;4.30;;;;;;;-0.53;100.00;98995.82;105692;1253;73822;-80
2023/11/27 11:04:51;;;;;;;5.50;3.60;;;;;;;-0.56;100.00;98996.80;105799;1257;60274;-81
2023/11/27 11:07:22;;;;;;;4.70;3.70;;;;;;;-0.57;100.00;99002.68;105835;1255;60112;-80
2023/11/27 11:09:49;;;;;;;4.90;3.90;;;;;;;-0.59;100.00;99011.50;105969;1253;71024;-79
2023/11/27 11:12:23;;;;;;;6.00;3.70;;;;;;;-0.57;100.00;99022.90;106230;1255;64010;-77
2023/11/27 11:14:52;;;;;;;4.50;4.00;;;;;;;-0.56;100.00;99031.45;105983;1255;73732;-79
2023/11/27 11:17:34;;;;;;;6.30;4.40;;;;;;;-0.55;100.00;99039.33;105928;1255;61546;-79
2023/11/27 11:20:28;;;;;;;6.40;4.70;;;;;;;-0.57;100.00;99042.98;105753;1258;61239;-79
2023/11/27 11:23:29;;;;;;;5.90;4.00;;;;;;;-0.57;100.00;99041.80;105829;1253;73285;-80
2023/11/27 11:26:32;;;;;;;4.40;3.40;;;;;;;-0.58;100.00;99048.20;105809;1252;63934;-79